Fredericksburg, VA

4:07 AM EST on December 09, 2019 (GMT -0500)
Shannon

Weather History for KEZF - October, 2019

Change the Weather History Date:

Monday, October 21, 2019

  Actual Average (WUND) Record (WUND)
Temperature  
Mean Temperature 60 °F -  
Max Temperature 67 °F - - (-1)
Min Temperature 54 °F - - (-1)
Degree Days  
Heating Degree Days 4    
Growing Degree Days 10 (Base 50)    
Moisture  
Dew Point 54 °F    
Average Humidity 87    
Maximum Humidity 100    
Minimum Humidity 64    
Precipitation  
Precipitation 0.01 in - - ()
Sea Level Pressure  
Sea Level Pressure 30.06 in    
Wind  
Wind Speed 4 mph ()    
Max Wind Speed 9 mph    
Max Gust Speed 17 mph    
Visibility 10.0 miles    
Events      
Averages and records for this station are not official NWS values.
T = Trace of Precipitation, MM = Missing Value Source: Averaged Metar Reports

Daily Weather History Graph

Daily Weather History Graph

Search for Another Location

Airport or City:

Astronomy

Oct. 21, 2019 Rise Set
Actual Time 7:24 AM EDT 6:23 PM EDT
Civil Twilight 6:57 AM EDT 6:50 PM EDT
Nautical Twilight 6:26 AM EDT 7:21 PM EDT
Astronomical Twilight 5:56 AM EDT 7:52 PM EDT
Moon No Moon Rise 2:37 PM EDT (10/21)
Length of Visible Light 11h 53m
Length of Day
10h 59m
Waning Gibbous, 48% of the Moon is Illuminated
Oct 21
Waning Gibbous
Oct 27
New
Nov 4
First Quarter
Nov 12
Full
Nov 19
Last Quarter

Hourly Weather History & Observations

Time (EDT) Temp. Dew Point Humidity Pressure Visibility Wind Dir Wind Speed Gust Speed Precip Events Conditions
12:15 AM 55.0 °F 55.0 °F 100% 29.96 in 10.0 mi NNW 5.8 mph - N/A   Overcast
12:35 AM 55.0 °F 55.0 °F 100% 29.97 in 10.0 mi NNW 6.9 mph - N/A   Overcast
12:55 AM 55.0 °F 55.0 °F 100% 29.97 in 10.0 mi NNW 3.5 mph - N/A   Overcast
1:15 AM 55.4 °F 55.4 °F 100% 29.98 in 10.0 mi Calm Calm - N/A   Overcast
1:55 AM 55.6 °F 55.4 °F 99% 29.99 in 10.0 mi NNW 8.1 mph - N/A   Overcast
2:15 AM 55.6 °F 55.0 °F 98% 30.00 in 10.0 mi NNW 5.8 mph - N/A   Overcast
2:35 AM 55.6 °F 54.9 °F 97% 30.00 in 10.0 mi NNW 4.6 mph - N/A   Overcast
2:55 AM 55.6 °F 54.7 °F 97% 30.00 in 10.0 mi NNW 6.9 mph - N/A   Overcast
3:15 AM 55.4 °F 54.5 °F 97% 30.00 in 10.0 mi NNW 9.2 mph - N/A   Overcast
3:35 AM 55.0 °F 54.0 °F 96% 30.00 in 10.0 mi North 6.9 mph - N/A   Overcast
3:55 AM 54.9 °F 53.8 °F 96% 30.00 in 10.0 mi NNW 5.8 mph - N/A   Overcast
4:15 AM 54.7 °F 53.8 °F 97% 30.01 in 10.0 mi NNW 8.1 mph - N/A   Overcast
4:35 AM 54.7 °F 53.8 °F 97% 30.01 in 10.0 mi North 9.2 mph - N/A   Overcast
4:55 AM 54.7 °F 53.2 °F 95% 30.01 in 10.0 mi North 8.1 mph 17.3 mph N/A   Overcast
5:15 AM 54.5 °F 53.1 °F 95% 30.02 in 10.0 mi North 8.1 mph - N/A   Overcast
5:55 AM 54.5 °F 53.1 °F 95% 30.03 in 10.0 mi North 5.8 mph - N/A   Overcast
6:15 AM 54.5 °F 52.7 °F 94% 30.04 in 10.0 mi North 6.9 mph - N/A   Overcast
6:35 AM 54.5 °F 52.7 °F 94% 30.04 in 10.0 mi North 4.6 mph - N/A   Overcast
6:55 AM 54.5 °F 52.7 °F 94% 30.04 in 10.0 mi North 5.8 mph - N/A   Overcast
7:35 AM 54.5 °F 52.7 °F 94% 30.06 in 10.0 mi North 3.5 mph - N/A   Overcast
7:55 AM 54.5 °F 52.7 °F 94% 30.06 in 10.0 mi North 5.8 mph - N/A   Overcast
8:15 AM 54.5 °F 52.2 °F 92% 30.07 in 10.0 mi North 6.9 mph - N/A   Overcast
8:35 AM 54.9 °F 52.5 °F 92% 30.08 in 10.0 mi North 8.1 mph - N/A   Overcast
8:55 AM 55.0 °F 52.2 °F 90% 30.09 in 10.0 mi North 6.9 mph - N/A   Overcast
9:15 AM 55.4 °F 52.2 °F 89% 30.09 in 10.0 mi North 3.5 mph - N/A   Overcast
9:35 AM 55.6 °F 52.5 °F 89% 30.09 in 10.0 mi North 3.5 mph - N/A   Overcast
9:55 AM 55.8 °F 52.5 °F 89% 30.12 in 10.0 mi North 4.6 mph - N/A   Overcast
10:15 AM 55.9 °F 52.9 °F 89% 30.11 in 10.0 mi NE 4.6 mph - N/A   Overcast
10:35 AM 56.3 °F 52.9 °F 88% 30.11 in 10.0 mi NE 5.8 mph - N/A   Overcast
10:55 AM 56.7 °F 52.9 °F 87% 30.11 in 10.0 mi NE 4.6 mph - N/A   Overcast
11:15 AM 57.2 °F 52.3 °F 84% 30.11 in 10.0 mi Calm Calm - N/A   Overcast
11:55 AM 57.9 °F 52.9 °F 83% 30.12 in 10.0 mi Calm Calm - N/A   Overcast
12:15 PM 61.0 °F 54.3 °F 79% 30.12 in 10.0 mi SW 3.5 mph - 0.01 in   Overcast
12:35 PM 59.5 °F 53.2 °F 80% 30.11 in 10.0 mi North 4.6 mph - 0.01 in   Overcast
12:55 PM 61.5 °F 54.1 °F 77% 30.09 in 10.0 mi NNW 4.6 mph - 0.01 in   Scattered Clouds
1:15 PM 61.7 °F 53.8 °F 75% 30.08 in 10.0 mi Calm Calm - N/A   Scattered Clouds
1:35 PM 62.6 °F 53.8 °F 73% 30.08 in 10.0 mi SW 3.5 mph - N/A   Scattered Clouds
1:55 PM 63.9 °F 54.0 °F 70% 30.07 in 10.0 mi WNW 3.5 mph - N/A   Scattered Clouds
2:15 PM 65.3 °F 54.1 °F 67% 30.06 in 10.0 mi Calm Calm - N/A   Clear
2:35 PM 65.1 °F 54.5 °F 68% 30.06 in 10.0 mi Calm Calm - N/A   Clear
2:55 PM 66.2 °F 54.3 °F 65% 30.06 in 10.0 mi Calm Calm - N/A   Clear
3:15 PM 66.4 °F 54.3 °F 65% 30.06 in 10.0 mi SW 3.5 mph - N/A   Clear
3:35 PM 66.2 °F 54.3 °F 65% 30.05 in 10.0 mi Calm Calm - N/A   Clear
3:55 PM 67.1 °F 54.7 °F 64% 30.04 in 10.0 mi SE 4.6 mph - N/A   Clear
4:15 PM 67.1 °F 54.5 °F 64% 30.05 in 10.0 mi SE 3.5 mph - N/A   Clear
4:35 PM 66.9 °F 54.5 °F 64% 30.04 in 10.0 mi Calm Calm - N/A   Clear
4:55 PM 66.9 °F 54.9 °F 65% 30.03 in 10.0 mi East 3.5 mph - N/A   Clear
5:15 PM 66.2 °F 55.2 °F 68% 30.04 in 10.0 mi SE 4.6 mph - N/A   Clear
5:35 PM 65.3 °F 56.1 °F 72% 30.05 in 10.0 mi East 4.6 mph - N/A   Clear
5:55 PM 64.8 °F 55.6 °F 72% 30.05 in 10.0 mi East 3.5 mph - N/A   Clear
6:15 PM 62.8 °F 56.7 °F 80% 30.04 in 10.0 mi East 3.5 mph - N/A   Clear
6:35 PM 60.3 °F 56.7 °F 88% 30.05 in 10.0 mi Calm Calm - N/A   Clear
7:15 PM 58.8 °F 56.1 °F 91% 30.07 in 10.0 mi SSW 6.9 mph - N/A   Clear
7:35 PM 58.8 °F 56.3 °F 91% 30.07 in 10.0 mi SSW 4.6 mph - N/A   Clear
7:55 PM 58.1 °F 55.9 °F 93% 30.07 in 10.0 mi SSW 6.9 mph - N/A   Clear
8:15 PM 57.4 °F 55.6 °F 94% 30.07 in 10.0 mi Calm Calm - N/A   Clear
8:35 PM 56.8 °F 55.2 °F 94% 30.07 in 10.0 mi Calm Calm - N/A   Clear
8:55 PM 56.5 °F 55.4 °F 96% 30.08 in 10.0 mi Calm Calm - N/A   Clear
9:15 PM 56.3 °F 55.0 °F 96% 30.09 in 10.0 mi SW 3.5 mph - N/A   Clear
9:35 PM 56.3 °F 55.2 °F 96% 30.09 in 10.0 mi Calm Calm - N/A   Clear
9:55 PM 56.1 °F 55.0 °F 96% 30.08 in 10.0 mi East 3.5 mph - N/A   Clear
10:15 PM 55.9 °F 55.0 °F 97% 30.09 in 10.0 mi Calm Calm - N/A   Clear
10:35 PM 55.4 °F 55.0 °F 99% 30.09 in 10.0 mi Calm Calm - N/A   Mostly Cloudy
10:55 PM 55.6 °F 55.4 °F 99% 30.08 in 10.0 mi SSE 4.6 mph - N/A   Overcast
11:15 PM 55.9 °F 55.4 °F 98% 30.07 in 10.0 mi SE 4.6 mph - N/A   Overcast
11:35 PM 55.9 °F 55.4 °F 98% 30.08 in 10.0 mi SW 3.5 mph - N/A   Overcast
11:55 PM 56.3 °F 55.6 °F 97% 30.09 in 10.0 mi Calm Calm - N/A   Overcast